Time;durP1;ratioP1;P1;durP2;ratioP2;P2;SDS_P1;SDS_P2;PMS_P1;PMS_P2;Temp;Humidity;BMP_temperature;BMP_pressure;BME280_temperature;BME280_humidity;BME280_pressure;Samples;Min_cycle;Max_cycle;Signal;HPM_P1;HPM_P2
2021/05/16 00:01:43;;;;;;;3.00;2.80;;;;;;;20.82;57.94;101150.80;1775845;79;21083;-49
2021/05/16 00:04:10;;;;;;;3.42;3.22;;;;;;;20.83;58.25;101144.59;1782505;79;21076;-49
2021/05/16 00:06:37;;;;;;;3.10;2.90;;;;;;;20.83;58.54;101151.20;1756038;80;21567;-49
2021/05/16 00:09:05;;;;;;;2.92;2.72;;;;;;;20.84;58.78;101152.89;1774479;79;21072;-49
2021/05/16 00:11:33;;;;;;;3.02;2.83;;;;;;;20.86;58.90;101148.36;1774751;79;21123;-50
2021/05/16 00:14:00;;;;;;;2.33;2.20;;;;;;;20.88;58.95;101150.45;1782360;79;21040;-49
2021/05/16 00:16:26;;;;;;;6.03;2.75;;;;;;;20.90;59.17;101146.38;1777894;79;21590;-49
2021/05/16 00:18:53;;;;;;;3.40;3.10;;;;;;;20.92;59.29;101145.82;1761104;79;21076;-49
2021/05/16 00:21:20;;;;;;;4.28;2.60;;;;;;;20.94;59.36;101143.48;1767773;79;21630;-49
2021/05/16 00:23:47;;;;;;;2.00;1.90;;;;;;;20.96;59.41;101140.73;1787024;79;21030;-50
2021/05/16 00:26:14;;;;;;;1.90;1.80;;;;;;;20.95;59.51;101151.81;1764955;80;21021;-49
2021/05/16 00:28:41;;;;;;;2.30;1.80;;;;;;;20.94;59.57;101148.77;1749074;80;21115;-49
2021/05/16 00:31:07;;;;;;;2.05;1.95;;;;;;;20.94;59.60;101151.87;1779103;79;21611;-50
2021/05/16 00:33:34;;;;;;;2.20;1.65;;;;;;;20.92;59.59;101149.33;1775143;79;21012;-50
2021/05/16 00:36:01;;;;;;;6.78;1.87;;;;;;;20.85;59.71;101149.32;1788936;79;21076;-49
2021/05/16 00:38:29;;;;;;;2.20;1.98;;;;;;;20.88;59.32;101154.42;1764658;79;21056;-49
2021/05/16 00:40:56;;;;;;;4.42;1.95;;;;;;;20.77;59.52;101154.17;1771515;79;21567;-49
2021/05/16 00:43:22;;;;;;;4.35;2.25;;;;;;;20.71;59.63;101155.84;1792108;79;21079;-49
2021/05/16 00:45:49;;;;;;;2.22;2.02;;;;;;;20.68;59.57;101149.89;1770433;80;21556;-49
2021/05/16 00:48:15;;;;;;;2.80;2.60;;;;;;;20.73;59.25;101146.53;1773073;79;21024;-49
2021/05/16 00:50:45;;;;;;;4.03;2.58;;;;;;;20.71;59.04;101141.30;1768513;79;21011;-49
2021/05/16 00:53:11;;;;;;;5.37;3.17;;;;;;;20.66;59.18;101139.41;1738184;82;21005;-49
2021/05/16 00:55:38;;;;;;;6.62;3.37;;;;;;;20.63;59.24;101148.83;1718466;81;21104;-49
2021/05/16 00:58:06;;;;;;;3.17;2.98;;;;;;;20.62;59.35;101148.92;1766180;80;21099;-49
2021/05/16 01:00:40;;;;;;;3.35;3.10;;;;;;;20.58;59.37;101135.03;1782716;80;21040;-49
2021/05/16 01:03:13;;;;;;;3.25;2.95;;;;;;;20.55;59.44;101136.52;1778379;79;21064;-49
2021/05/16 01:05:42;;;;;;;4.95;3.83;;;;;;;20.52;59.51;101130.09;1766925;79;21588;-49
2021/05/16 01:08:11;;;;;;;4.00;3.55;;;;;;;20.52;59.61;101123.95;1772200;79;21052;-49
2021/05/16 01:10:38;;;;;;;3.22;2.90;;;;;;;20.52;59.54;101120.84;1760956;80;21095;-50
2021/05/16 01:13:06;;;;;;;3.08;2.87;;;;;;;20.52;59.38;101111.59;1774580;79;21028;-49
2021/05/16 01:15:34;;;;;;;2.72;2.52;;;;;;;20.51;59.26;101112.52;1758464;79;21052;-50
2021/05/16 01:18:01;;;;;;;3.10;2.90;;;;;;;20.50;59.28;101106.86;1723013;82;21156;-49
2021/05/16 01:20:32;;;;;;;5.08;3.33;;;;;;;20.47;59.24;101103.05;1779990;79;21049;-49
2021/05/16 01:23:08;;;;;;;3.70;3.40;;;;;;;20.46;59.21;101100.51;1771355;79;21582;-50
2021/05/16 01:25:42;;;;;;;3.67;3.37;;;;;;;20.45;59.21;101097.00;1766944;79;21036;-50
2021/05/16 01:28:11;;;;;;;4.17;3.77;;;;;;;20.43;59.16;101098.88;1676797;84;21127;-49
2021/05/16 01:30:38;;;;;;;4.03;3.70;;;;;;;20.41;59.27;101102.08;1744066;81;21031;-49
2021/05/16 01:33:05;;;;;;;3.58;3.37;;;;;;;20.42;59.23;101099.84;1732541;81;21615;-48
2021/05/16 01:35:32;;;;;;;3.98;3.55;;;;;;;20.46;59.01;101096.08;1737715;81;21068;-50
2021/05/16 01:37:58;;;;;;;4.10;3.77;;;;;;;20.46;58.49;101101.37;1750301;81;21641;-49
2021/05/16 01:40:26;;;;;;;3.60;3.33;;;;;;;20.46;58.44;101100.05;1749826;81;21107;-49
2021/05/16 01:42:56;;;;;;;4.22;3.85;;;;;;;20.45;58.32;101098.78;1734608;82;21103;-49
2021/05/16 01:45:27;;;;;;;3.85;3.55;;;;;;;20.43;58.34;101101.52;1723463;82;21083;-50
2021/05/16 01:47:56;;;;;;;;;;;;;;;20.42;58.20;101093.23;1738096;82;21146;-49
2021/05/16 01:50:27;;;;;;;3.87;3.58;;;;;;;20.42;58.01;101097.20;1750555;81;20523;-49
2021/05/16 01:52:56;;;;;;;3.55;3.25;;;;;;;20.40;58.06;101098.22;1735441;81;21602;-49
2021/05/16 01:55:23;;;;;;;4.30;4.00;;;;;;;20.38;58.06;101100.09;1754740;81;21036;-49
2021/05/16 01:57:51;;;;;;;5.47;4.47;;;;;;;20.35;58.11;101097.14;1738424;81;21131;-49
2021/05/16 02:00:35;;;;;;;3.75;3.45;;;;;;;20.34;58.11;101094.11;1730470;81;21174;-50
2021/05/16 02:03:02;;;;;;;3.60;3.35;;;;;;;20.33;58.16;101095.06;1748641;81;21032;-49
2021/05/16 02:05:31;;;;;;;3.58;3.27;;;;;;;20.31;58.32;101098.26;1742774;81;21087;-49
2021/05/16 02:07:59;;;;;;;2.95;2.75;;;;;;;20.32;58.43;101097.80;1732603;81;21574;-49
2021/05/16 02:10:27;;;;;;;3.35;3.05;;;;;;;20.33;58.51;101091.56;1745956;81;21055;-49
2021/05/16 02:12:55;;;;;;;2.33;2.12;;;;;;;20.31;58.63;101082.41;1739370;81;21072;-49
2021/05/16 02:15:23;;;;;;;2.42;2.17;;;;;;;20.32;58.69;101085.41;1748554;81;21059;-49
2021/05/16 02:17:54;;;;;;;2.40;2.20;;;;;;;20.32;58.80;101081.94;1736729;82;21060;-50
2021/05/16 02:20:19;;;;;;;2.42;2.15;;;;;;;20.32;58.89;101084.09;1741829;81;21072;-49
2021/05/16 02:22:46;;;;;;;2.35;2.15;;;;;;;20.33;58.77;101080.52;1748716;81;21626;-49
2021/05/16 02:25:14;;;;;;;2.12;2.02;;;;;;;20.34;58.62;101080.89;1760422;80;21540;-48
2021/05/16 02:27:47;;;;;;;2.10;2.00;;;;;;;20.34;58.34;101080.89;1781752;79;21036;-49
2021/05/16 02:30:16;;;;;;;2.35;2.25;;;;;;;20.35;58.11;101079.97;1731175;81;21588;-49
2021/05/16 02:32:42;;;;;;;2.60;2.40;;;;;;;20.34;58.14;101079.56;1697615;83;21560;-48
2021/05/16 02:35:12;;;;;;;3.17;2.98;;;;;;;20.33;58.15;101077.87;1704082;82;21091;-49
2021/05/16 02:37:47;;;;;;;3.10;2.80;;;;;;;20.34;58.20;101078.25;1712891;82;21053;-50
2021/05/16 02:40:16;;;;;;;2.60;2.40;;;;;;;20.34;58.13;101083.53;1715048;83;21578;-49
2021/05/16 02:42:44;;;;;;;3.00;2.80;;;;;;;20.32;57.98;101085.41;1718607;81;21063;-49
2021/05/16 02:45:13;;;;;;;3.55;3.12;;;;;;;20.33;57.85;101091.56;1724226;82;21031;-49
2021/05/16 02:47:40;;;;;;;4.03;3.25;;;;;;;20.33;57.77;101092.42;1690986;83;21106;-49
2021/05/16 02:50:08;;;;;;;5.00;3.20;;;;;;;20.34;57.55;101095.42;1721041;81;21083;-49
2021/05/16 02:52:36;;;;;;;3.75;3.45;;;;;;;20.34;57.45;101100.71;1687831;84;21609;-50
2021/05/16 02:55:07;;;;;;;3.45;3.15;;;;;;;20.34;57.58;101099.39;1673065;84;21618;-49
2021/05/16 02:57:34;;;;;;;3.98;3.60;;;;;;;20.34;57.67;101097.24;1681581;84;21068;-49
2021/05/16 03:00:01;;;;;;;4.58;4.17;;;;;;;20.34;57.71;101101.20;1677563;85;21044;-49
2021/05/16 03:02:28;;;;;;;4.42;3.95;;;;;;;20.35;57.85;101105.53;1683149;84;21072;-50
2021/05/16 03:04:55;;;;;;;5.60;4.37;;;;;;;20.35;57.82;101106.40;1675322;85;21600;-49
2021/05/16 03:07:21;;;;;;;3.98;3.67;;;;;;;20.37;57.78;101105.84;1675183;85;21028;-49
2021/05/16 03:09:48;;;;;;;3.92;3.62;;;;;;;20.37;57.86;101095.27;1681294;85;21118;-49
2021/05/16 03:12:16;;;;;;;4.72;4.33;;;;;;;20.38;57.99;101096.95;1674305;85;21043;-49
2021/05/16 03:14:43;;;;;;;4.78;4.30;;;;;;;20.40;58.06;101101.72;1678121;84;21076;-50
2021/05/16 03:17:10;;;;;;;4.95;4.12;;;;;;;20.42;58.10;101105.13;1681915;84;21112;-49
2021/05/16 03:19:38;;;;;;;5.55;4.70;;;;;;;20.44;58.22;101108.53;1679602;85;21064;-49
2021/05/16 03:22:06;;;;;;;6.85;5.40;;;;;;;20.45;58.35;101110.22;1680792;85;21132;-49
2021/05/16 03:24:33;;;;;;;8.05;6.72;;;;;;;20.50;58.52;101112.61;1681523;85;21184;-49
2021/05/16 03:27:01;;;;;;;10.08;6.10;;;;;;;20.53;58.64;101115.92;1701969;82;21210;-50
2021/05/16 03:29:27;;;;;;;8.68;6.67;;;;;;;20.55;58.77;101114.04;1716300;80;21071;-49
2021/05/16 03:31:55;;;;;;;9.10;6.53;;;;;;;20.61;58.92;101124.76;1768750;79;21531;-49
2021/05/16 03:34:21;;;;;;;9.25;6.60;;;;;;;20.63;59.01;101127.67;1778248;79;21009;-49
2021/05/16 03:36:48;;;;;;;7.28;6.67;;;;;;;20.68;59.11;101122.98;1727493;81;21577;-50
2021/05/16 03:39:15;;;;;;;7.40;6.70;;;;;;;20.73;59.13;101114.30;1780738;79;21096;-49
2021/05/16 03:41:42;;;;;;;7.97;6.72;;;;;;;20.77;59.22;101114.50;1778385;79;21728;-49
2021/05/16 03:44:09;;;;;;;8.60;7.03;;;;;;;20.84;59.74;101116.33;1761869;79;21044;-49
2021/05/16 03:46:36;;;;;;;8.93;7.15;;;;;;;20.94;59.85;101114.38;1769256;79;21560;-49
2021/05/16 03:49:04;;;;;;;8.15;7.33;;;;;;;21.09;59.13;101119.27;1777430;79;21048;-49
2021/05/16 03:51:31;;;;;;;10.85;7.87;;;;;;;21.19;58.50;101118.23;1770217;80;21604;-49
2021/05/16 03:53:57;;;;;;;10.25;6.87;;;;;;;21.27;58.15;101126.60;1777500;79;21082;-50
2021/05/16 03:56:24;;;;;;;8.65;7.28;;;;;;;21.32;57.99;101128.02;1777436;80;20996;-49
2021/05/16 03:58:50;;;;;;;8.53;7.65;;;;;;;21.34;57.91;101135.86;1779463;79;21051;-49
2021/05/16 04:01:18;;;;;;;8.63;7.87;;;;;;;21.38;57.86;101132.08;1768043;80;21095;-49
2021/05/16 04:03:45;;;;;;;8.20;7.50;;;;;;;21.42;57.79;101132.28;1780863;79;21057;-49
2021/05/16 04:06:12;;;;;;;7.78;6.50;;;;;;;21.46;57.71;101135.11;1721983;82;21601;-49
2021/05/16 04:08:40;;;;;;;6.85;5.50;;;;;;;21.46;57.77;101127.17;1709133;82;21054;-49
2021/05/16 04:11:07;;;;;;;7.28;6.30;;;;;;;21.44;57.80;101123.77;1722493;81;21127;-49
2021/05/16 04:13:35;;;;;;;8.05;7.22;;;;;;;21.42;57.91;101123.01;1751425;80;21045;-49
2021/05/16 04:16:04;;;;;;;7.50;6.80;;;;;;;21.37;58.02;101125.10;1759180;79;21127;-48
2021/05/16 04:18:31;;;;;;;7.25;6.35;;;;;;;21.31;58.22;101130.77;1769060;80;21086;-49
2021/05/16 04:20:58;;;;;;;7.53;6.03;;;;;;;21.32;58.37;101135.96;1773217;79;21042;-50
2021/05/16 04:23:26;;;;;;;9.65;7.10;;;;;;;21.36;58.46;101130.00;1771125;78;21029;-49
2021/05/16 04:25:54;;;;;;;7.85;6.72;;;;;;;21.42;58.43;101125.66;1769310;79;21095;-49
2021/05/16 04:28:21;;;;;;;8.20;7.30;;;;;;;21.48;58.11;101122.64;1774936;79;21120;-49
2021/05/16 04:30:48;;;;;;;8.75;7.28;;;;;;;21.53;57.92;101125.88;1776112;79;21056;-49
2021/05/16 04:33:16;;;;;;;10.23;7.25;;;;;;;21.61;57.61;101122.27;1770243;79;21064;-49
2021/05/16 04:35:43;;;;;;;9.40;8.05;;;;;;;21.66;57.41;101120.17;1760256;78;21531;-49
2021/05/16 04:38:10;;;;;;;10.05;8.30;;;;;;;21.69;57.37;101117.36;1771362;79;21064;-49
2021/05/16 04:40:37;;;;;;;8.70;7.83;;;;;;;21.75;57.28;101124.45;1775018;79;21422;-49
2021/05/16 04:43:04;;;;;;;12.25;7.60;;;;;;;21.81;56.88;101120.56;1783513;80;21063;-49
2021/05/16 04:45:31;;;;;;;9.40;7.62;;;;;;;21.84;56.69;101120.42;1771502;79;21040;-49
2021/05/16 04:47:59;;;;;;;10.23;7.65;;;;;;;21.85;56.24;101122.11;1762051;80;20996;-49
2021/05/16 04:50:26;;;;;;;8.95;7.20;;;;;;;21.85;56.21;101120.78;1765070;79;21516;-50
2021/05/16 04:52:52;;;;;;;9.88;7.90;;;;;;;21.84;55.91;101125.72;1781533;79;21009;-49
2021/05/16 04:55:19;;;;;;;9.48;7.58;;;;;;;21.81;55.75;101124.53;1724993;82;21074;-49
2021/05/16 04:57:45;;;;;;;8.68;7.78;;;;;;;21.81;55.45;101120.56;1788473;79;21056;-49
2021/05/16 05:00:15;;;;;;;8.48;7.47;;;;;;;21.81;55.35;101121.45;1763110;79;21029;-49
2021/05/16 05:02:43;;;;;;;11.35;8.50;;;;;;;21.84;55.44;101123.06;1793056;79;21083;-49
2021/05/16 05:05:11;;;;;;;12.80;8.55;;;;;;;21.86;55.39;101115.88;1777832;79;21578;-49
2021/05/16 05:07:38;;;;;;;8.18;7.47;;;;;;;21.90;55.45;101114.73;1782131;79;21021;-49
2021/05/16 05:10:07;;;;;;;9.38;8.43;;;;;;;21.93;55.17;101115.84;1778515;79;21016;-49
2021/05/16 05:12:34;;;;;;;9.98;8.10;;;;;;;21.96;54.98;101118.32;1783623;79;21122;-48
2021/05/16 05:15:01;;;;;;;7.97;6.58;;;;;;;21.99;54.84;101116.78;1746573;80;21108;-49
2021/05/16 05:17:29;;;;;;;9.28;7.53;;;;;;;22.00;54.49;101122.94;1697787;82;21598;-48
2021/05/16 05:19:56;;;;;;;8.85;7.95;;;;;;;22.01;54.43;101125.48;1747347;81;21100;-49
2021/05/16 05:22:22;;;;;;;10.95;8.75;;;;;;;22.03;54.52;101125.41;1726031;82;21140;-49
2021/05/16 05:24:49;;;;;;;10.65;8.88;;;;;;;22.08;54.64;101124.16;1711114;83;21083;-49
2021/05/16 05:27:16;;;;;;;12.85;9.78;;;;;;;22.13;54.77;101122.09;1716335;82;21052;-49
2021/05/16 05:29:43;;;;;;;11.08;9.30;;;;;;;22.19;54.92;101123.02;1712866;82;21131;-49
2021/05/16 05:32:10;;;;;;;9.98;8.93;;;;;;;22.28;54.96;101113.13;1724121;82;21040;-49
2021/05/16 05:34:38;;;;;;;11.10;9.23;;;;;;;22.44;55.01;101119.14;1730355;82;21061;-49
2021/05/16 05:37:05;;;;;;;10.88;9.85;;;;;;;22.61;54.87;101112.30;1743944;80;21088;-49
2021/05/16 05:39:31;;;;;;;12.10;8.90;;;;;;;22.79;54.55;101114.70;1730046;82;21084;-49
2021/05/16 05:42:00;;;;;;;11.03;8.90;;;;;;;23.01;54.07;101114.95;1715354;83;21088;-49
2021/05/16 05:44:26;;;;;;;10.20;7.90;;;;;;;23.22;53.62;101114.83;1792854;79;21024;-49
2021/05/16 05:46:53;;;;;;;9.55;8.18;;;;;;;23.40;53.20;101110.94;1729638;82;21078;-48
2021/05/16 05:49:20;;;;;;;11.33;7.90;;;;;;;23.49;52.83;101122.27;1715559;82;21536;-49
2021/05/16 05:51:48;;;;;;;10.13;8.08;;;;;;;23.53;52.59;101122.42;1700649;83;21659;-49
2021/05/16 05:54:15;;;;;;;9.08;8.03;;;;;;;23.58;52.59;101122.94;1728036;82;21045;-48
2021/05/16 05:56:42;;;;;;;12.07;8.50;;;;;;;23.62;52.58;101124.42;1716615;82;21088;-49
2021/05/16 05:59:09;;;;;;;11.30;8.03;;;;;;;23.65;52.51;101121.56;1779136;79;21016;-49
2021/05/16 06:01:36;;;;;;;8.35;6.95;;;;;;;23.67;52.51;101124.96;1776496;79;21539;-48
2021/05/16 06:04:03;;;;;;;8.30;7.20;;;;;;;23.66;52.57;101123.25;1772749;79;21060;-49
2021/05/16 06:06:30;;;;;;;10.13;8.03;;;;;;;23.64;52.66;101113.71;1765302;79;21572;-49
2021/05/16 06:08:59;;;;;;;8.50;7.50;;;;;;;23.59;52.90;101122.47;1776924;79;21820;-49
2021/05/16 06:11:25;;;;;;;8.70;7.65;;;;;;;23.55;53.10;101125.82;1773945;80;21077;-50
2021/05/16 06:13:52;;;;;;;7.75;6.87;;;;;;;23.58;53.22;101126.06;1772310;79;21028;-49
2021/05/16 06:16:19;;;;;;;6.83;6.12;;;;;;;23.63;53.34;101132.78;1768420;79;21020;-48
2021/05/16 06:18:46;;;;;;;7.33;6.55;;;;;;;23.73;53.18;101138.28;1770776;80;21374;-49
2021/05/16 06:21:12;;;;;;;7.72;6.72;;;;;;;23.69;53.33;101138.98;1777427;79;21036;-48
2021/05/16 06:26:26;;;;;;;6.12;5.62;;;;;;;23.71;52.96;101136.22;1771804;79;21071;-50
2021/05/16 06:28:53;;;;;;;4.97;4.55;;;;;;;23.90;52.62;101131.31;1776569;79;21596;-49
2021/05/16 06:31:22;;;;;;;3.30;3.00;;;;;;;24.11;52.18;101135.97;1776606;79;21087;-49
2021/05/16 06:33:50;;;;;;;2.85;2.40;;;;;;;24.34;51.73;101134.30;1781165;79;21008;-49
2021/05/16 06:36:17;;;;;;;3.65;2.37;;;;;;;24.57;51.10;101129.95;1742601;80;21027;-50
2021/05/16 06:38:45;;;;;;;2.90;2.40;;;;;;;24.78;50.27;101129.27;1796334;79;21042;-49
2021/05/16 06:41:12;;;;;;;3.35;2.55;;;;;;;24.96;49.63;101129.67;1782139;79;21048;-49
2021/05/16 06:43:39;;;;;;;4.20;2.70;;;;;;;25.11;49.34;101124.53;1780951;80;22527;-49
2021/05/16 06:46:06;;;;;;;6.72;2.95;;;;;;;25.22;48.65;101119.25;1773665;79;21012;-50
2021/05/16 06:48:35;;;;;;;4.92;3.33;;;;;;;25.24;48.54;101119.98;1778983;79;21064;-49
2021/05/16 06:51:03;;;;;;;3.55;2.98;;;;;;;25.26;48.52;101119.38;1774689;79;21546;-49
2021/05/16 06:53:31;;;;;;;3.20;2.90;;;;;;;25.31;48.41;101114.52;1757083;79;21063;-48
2021/05/16 06:55:58;;;;;;;3.35;2.98;;;;;;;25.29;48.42;101119.13;1772814;79;21583;-48
2021/05/16 06:58:25;;;;;;;2.83;2.52;;;;;;;25.23;48.32;101112.94;1781320;79;21135;-49
2021/05/16 07:00:51;;;;;;;3.30;3.00;;;;;;;25.04;48.65;101111.30;1772635;79;21039;-48
2021/05/16 07:03:18;;;;;;;3.27;2.87;;;;;;;24.93;48.89;101113.95;1793591;79;21020;-49
2021/05/16 07:05:45;;;;;;;3.65;2.83;;;;;;;24.79;49.40;101116.81;1778121;79;21067;-49
2021/05/16 07:08:12;;;;;;;2.70;2.50;;;;;;;24.69;49.66;101115.27;1721325;82;21091;-49
2021/05/16 07:10:38;;;;;;;2.95;2.75;;;;;;;24.56;49.80;101114.97;1723996;82;21013;-49
2021/05/16 07:13:05;;;;;;;3.10;2.80;;;;;;;24.42;50.10;101109.83;1724599;82;21659;-48
2021/05/16 07:15:33;;;;;;;3.65;2.92;;;;;;;24.40;50.08;101117.89;1698059;82;21046;-49
2021/05/16 07:17:59;;;;;;;4.37;3.25;;;;;;;24.34;50.22;101115.69;1700408;82;21044;-49
2021/05/16 07:20:26;;;;;;;4.33;3.25;;;;;;;24.23;50.42;101119.13;1808534;79;21515;-50
2021/05/16 07:22:53;;;;;;;3.45;3.15;;;;;;;24.11;50.60;101118.68;1773267;79;21091;-49
2021/05/16 07:25:19;;;;;;;3.20;2.90;;;;;;;24.02;50.78;101114.02;1720904;82;21062;-49
2021/05/16 07:27:47;;;;;;;3.72;3.42;;;;;;;23.92;51.06;101108.13;1742131;82;21565;-51
2021/05/16 07:30:15;;;;;;;7.92;3.87;;;;;;;23.80;51.38;101112.48;1703583;82;21092;-49
2021/05/16 07:32:42;;;;;;;3.80;3.50;;;;;;;23.68;51.69;101108.05;1795909;79;21108;-49
2021/05/16 07:35:10;;;;;;;3.72;3.42;;;;;;;23.59;51.92;101114.02;1779221;80;21060;-50
2021/05/16 07:37:37;;;;;;;3.80;3.40;;;;;;;23.50;52.27;101106.69;1771279;80;21035;-50
2021/05/16 07:40:06;;;;;;;4.05;3.65;;;;;;;23.48;52.37;101109.92;1778892;78;21025;-50
2021/05/16 07:42:32;;;;;;;5.92;4.00;;;;;;;23.44;52.58;101115.08;1694845;82;21037;-49
2021/05/16 07:45:01;;;;;;;4.67;4.20;;;;;;;23.42;52.75;101110.35;1732526;81;21635;-50
2021/05/16 07:47:27;;;;;;;4.50;4.10;;;;;;;23.45;52.68;101114.14;1763704;79;21056;-50
2021/05/16 07:49:55;;;;;;;4.05;3.70;;;;;;;23.38;52.65;101108.87;1793566;79;21075;-49
2021/05/16 07:52:23;;;;;;;4.58;4.17;;;;;;;23.33;52.99;101103.01;1764794;79;21041;-50
2021/05/16 07:54:51;;;;;;;4.45;4.05;;;;;;;23.34;52.92;101103.40;1751525;81;21084;-49
2021/05/16 07:57:18;;;;;;;4.28;3.90;;;;;;;;;;1769021;79;21076;-49
2021/05/16 07:59:44;;;;;;;4.60;4.20;;;;;;;23.45;52.81;101094.22;1773963;78;21606;-49
2021/05/16 08:02:11;;;;;;;5.22;4.72;;;;;;;23.52;52.34;101093.28;1785788;79;21047;-49
2021/05/16 08:04:38;;;;;;;4.97;4.58;;;;;;;23.57;52.04;101084.06;1764574;80;21100;-50
2021/05/16 08:07:05;;;;;;;6.28;5.00;;;;;;;23.54;51.96;101082.94;1778321;79;21079;-49
2021/05/16 08:09:31;;;;;;;7.20;4.92;;;;;;;23.66;51.49;101075.42;1758368;79;21036;-49
2021/05/16 08:12:00;;;;;;;5.12;4.72;;;;;;;23.65;51.26;101068.42;1778554;80;21119;-49
2021/05/16 08:14:28;;;;;;;4.95;4.55;;;;;;;23.58;50.50;101068.48;1772094;79;21576;-49
2021/05/16 08:16:56;;;;;;;4.83;4.35;;;;;;;23.58;50.02;101067.15;1721441;81;21052;-49
2021/05/16 08:19:23;;;;;;;5.00;4.50;;;;;;;23.56;49.57;101068.20;1777680;79;21040;-49
2021/05/16 08:21:50;;;;;;;6.00;5.40;;;;;;;23.51;49.23;101063.25;1781069;79;21616;-49
2021/05/16 08:24:17;;;;;;;6.55;4.83;;;;;;;23.46;48.74;101065.36;1778576;79;21040;-49
2021/05/16 08:26:43;;;;;;;5.85;5.35;;;;;;;23.42;48.66;101066.53;1765706;79;21004;-50
2021/05/16 08:29:10;;;;;;;6.00;4.87;;;;;;;23.38;48.36;101067.70;1784225;79;21068;-49
2021/05/16 08:31:37;;;;;;;6.80;5.25;;;;;;;23.35;48.28;101061.27;1779781;80;21056;-49
2021/05/16 08:34:05;;;;;;;6.58;4.97;;;;;;;23.30;48.04;101054.94;1769759;79;21045;-49
2021/05/16 08:36:35;;;;;;;5.45;4.92;;;;;;;23.23;47.81;101051.00;1784985;79;21068;-50
2021/05/16 08:39:05;;;;;;;6.92;5.00;;;;;;;23.17;47.73;101053.22;1775537;79;21079;-50
2021/05/16 08:41:35;;;;;;;6.17;4.95;;;;;;;23.09;47.43;101053.77;1755925;80;21029;-49
2021/05/16 08:44:04;;;;;;;6.60;4.62;;;;;;;23.01;47.44;101049.93;1760782;79;21584;-49
2021/05/16 08:46:30;;;;;;;4.83;4.33;;;;;;;22.97;47.28;101049.77;1718479;82;21124;-49
2021/05/16 08:48:58;;;;;;;5.33;4.35;;;;;;;22.95;47.03;101047.70;1734228;82;21068;-49
2021/05/16 08:51:25;;;;;;;5.08;4.58;;;;;;;22.92;46.86;101047.42;1763421;79;21016;-49
2021/05/16 08:53:53;;;;;;;4.60;3.98;;;;;;;22.91;47.03;101040.90;1787347;79;22009;-49
2021/05/16 08:56:20;;;;;;;4.62;3.52;;;;;;;22.90;46.98;101029.43;1770370;79;21536;-48
2021/05/16 08:58:47;;;;;;;4.25;3.85;;;;;;;22.93;46.73;101028.38;1769967;79;21071;-49
2021/05/16 09:01:25;;;;;;;5.70;3.20;;;;;;;22.98;46.48;101024.44;1792486;79;21060;-49
2021/05/16 09:03:52;;;;;;;3.60;2.72;;;;;;;23.08;46.08;101023.34;1779395;79;21033;-49
2021/05/16 09:06:19;;;;;;;3.77;2.62;;;;;;;23.20;45.46;101014.53;1767836;80;21044;-49
2021/05/16 09:08:45;;;;;;;4.30;3.02;;;;;;;23.33;45.33;101011.39;1737025;80;21567;-49
2021/05/16 09:11:13;;;;;;;3.30;2.67;;;;;;;23.48;44.91;101010.33;1779017;78;21087;-50
2021/05/16 09:13:44;;;;;;;5.97;3.35;;;;;;;23.58;45.14;101010.03;1771062;79;21047;-49
2021/05/16 09:16:14;;;;;;;3.83;3.27;;;;;;;23.70;44.89;101011.80;1756103;79;21009;-49
2021/05/16 09:18:51;;;;;;;4.95;4.33;;;;;;;23.81;44.56;101011.03;1745076;82;21045;-49
2021/05/16 09:21:33;;;;;;;5.25;4.53;;;;;;;23.88;44.48;101009.17;1737059;81;21074;-49
2021/05/16 09:24:09;;;;;;;8.45;5.58;;;;;;;23.95;44.85;101008.22;1717394;82;21100;-49
2021/05/16 09:26:58;;;;;;;8.45;6.03;;;;;;;23.99;44.88;101011.88;1728773;81;21071;-50
2021/05/16 09:29:33;;;;;;;6.58;5.87;;;;;;;23.93;45.65;101005.68;1776679;79;21029;-49
2021/05/16 09:32:01;;;;;;;7.00;6.28;;;;;;;23.96;45.71;101006.80;1791246;78;21008;-49
2021/05/16 09:34:28;;;;;;;5.78;5.20;;;;;;;24.06;45.75;101009.18;1783296;79;21036;-50
2021/05/16 09:36:56;;;;;;;6.47;5.87;;;;;;;24.08;45.98;101007.73;1778392;79;21579;-49
2021/05/16 09:39:29;;;;;;;6.90;6.25;;;;;;;24.19;45.94;101011.28;1780557;79;21068;-49
2021/05/16 09:42:06;;;;;;;6.83;6.20;;;;;;;24.39;45.67;100998.31;1765822;80;21100;-49
2021/05/16 09:44:40;;;;;;;6.50;5.60;;;;;;;24.52;45.47;100999.10;1713944;81;21598;-49
2021/05/16 09:47:21;;;;;;;5.20;4.62;;;;;;;24.64;45.03;100990.19;1726442;82;21048;-50
2021/05/16 09:50:00;;;;;;;9.35;5.65;;;;;;;24.74;44.51;100984.55;1711925;82;21072;-50
2021/05/16 09:52:35;;;;;;;5.78;5.03;;;;;;;24.77;44.05;100986.99;1606652;88;21087;-50
2021/05/16 09:55:13;;;;;;;5.85;5.22;;;;;;;24.79;44.19;100987.22;1604353;88;21062;-49
2021/05/16 09:57:46;;;;;;;6.65;5.72;;;;;;;24.85;44.28;100983.25;1564180;90;21101;-49
2021/05/16 10:00:14;;;;;;;7.35;6.65;;;;;;;24.89;44.25;100983.38;1547633;90;21058;-49
2021/05/16 10:02:41;;;;;;;8.08;6.92;;;;;;;24.92;44.34;100982.65;1553103;91;21138;-49
2021/05/16 10:05:11;;;;;;;7.55;6.42;;;;;;;24.96;44.58;100976.59;1559986;91;21198;-48
2021/05/16 10:07:38;;;;;;;9.60;6.40;;;;;;;25.04;44.44;100974.18;1511609;93;21239;-50
2021/05/16 10:10:07;;;;;;;8.18;6.20;;;;;;;25.12;44.26;100958.48;1535148;92;21192;-48
2021/05/16 10:12:36;;;;;;;8.80;6.10;;;;;;;25.14;43.80;100965.86;1526914;92;21628;-49
2021/05/16 10:15:17;;;;;;;6.95;6.25;;;;;;;25.15;43.86;100964.88;1537588;92;21148;-49
2021/05/16 10:17:51;;;;;;;6.17;5.60;;;;;;;25.12;43.72;100964.28;1524108;92;21104;-49
2021/05/16 10:20:27;;;;;;;6.70;6.05;;;;;;;25.00;44.25;100959.41;1531638;92;21720;-50
2021/05/16 10:22:57;;;;;;;6.65;6.00;;;;;;;24.94;44.28;100966.55;1532347;92;21088;-50
2021/05/16 10:25:47;;;;;;;11.28;5.95;;;;;;;24.88;44.32;100968.36;1495008;95;21634;-49
2021/05/16 10:28:16;;;;;;;8.00;5.83;;;;;;;24.85;44.62;100975.27;1487058;95;21114;-48
2021/05/16 10:31:06;;;;;;;9.03;6.25;;;;;;;24.80;44.81;100974.29;1480341;95;21197;-49
2021/05/16 10:33:34;;;;;;;7.35;6.12;;;;;;;24.72;45.08;100967.34;1476747;96;21691;-49
2021/05/16 10:36:01;;;;;;;9.08;5.78;;;;;;;24.64;45.27;100966.23;1522576;92;21148;-49
2021/05/16 10:38:41;;;;;;;5.80;5.12;;;;;;;24.57;45.38;100966.33;1516806;93;21111;-49
2021/05/16 10:41:18;;;;;;;5.30;4.80;;;;;;;24.51;45.60;100961.00;1498500;91;21155;-49
2021/05/16 10:43:45;;;;;;;8.48;5.33;;;;;;;24.50;45.78;100949.16;1529432;91;21210;-49
2021/05/16 10:46:42;;;;;;;6.05;4.87;;;;;;;24.50;45.94;100943.36;1529922;92;21165;-49
2021/05/16 10:49:26;;;;;;;6.47;5.20;;;;;;;24.50;45.91;100940.70;1544325;91;21082;-50
2021/05/16 10:51:53;;;;;;;5.53;4.87;;;;;;;24.46;45.88;100943.70;1540839;91;21172;-49
2021/05/16 10:54:34;;;;;;;7.30;4.62;;;;;;;24.45;46.10;100940.66;1568454;89;21058;-49
2021/05/16 10:57:23;;;;;;;5.62;4.20;;;;;;;24.44;46.19;100942.98;1540920;92;21127;-49
2021/05/16 10:59:47;;;;;;;5.40;4.50;;;;;;;24.46;46.29;100943.70;1543422;91;21099;-49
2021/05/16 11:03:02;;;;;;;5.30;4.17;;;;;;;24.47;46.33;100945.38;1545490;90;21246;-49
2021/05/16 11:05:48;;;;;;;5.65;4.30;;;;;;;24.47;46.43;100944.05;1514322;92;21128;-48
2021/05/16 11:08:29;;;;;;;6.85;4.37;;;;;;;24.48;46.60;100939.11;1517468;91;21115;-49
2021/05/16 11:10:56;;;;;;;4.90;4.40;;;;;;;24.52;46.65;100937.91;1554161;89;21107;-49
2021/05/16 11:13:31;;;;;;;5.28;4.12;;;;;;;24.54;46.73;100935.98;1538035;91;21123;-49
2021/05/16 11:16:05;;;;;;;5.25;4.05;;;;;;;24.54;46.52;100933.33;1566381;90;21173;-50
2021/05/16 11:18:33;;;;;;;6.30;4.25;;;;;;;24.51;46.51;100924.23;1569593;89;21650;-48
2021/05/16 11:21:03;;;;;;;5.42;4.17;;;;;;;24.58;46.24;100924.14;1567980;89;21107;-48
2021/05/16 11:23:34;;;;;;;4.92;3.50;;;;;;;24.59;46.14;100924.02;1578408;88;21507;-49
2021/05/16 11:26:04;;;;;;;5.85;4.45;;;;;;;24.61;46.45;100917.23;1459407;95;21607;-48
2021/05/16 11:28:37;;;;;;;3.83;2.70;;;;;;;24.67;46.40;100911.44;1452329;96;21127;-49
2021/05/16 11:31:09;;;;;;;3.62;3.33;;;;;;;24.69;46.02;100912.20;1454977;97;21202;-48
2021/05/16 11:33:37;;;;;;;3.67;2.50;;;;;;;24.68;45.83;100913.14;1457596;96;21653;-48
2021/05/16 11:36:08;;;;;;;3.08;2.85;;;;;;;24.68;45.67;100917.14;1434239;96;21715;-48